sensor_id;sensor_type;location;lat;lon;timestamp;P1;durP1;ratioP1;P2;durP2;ratioP2
77518;SDS011;66629;47.346;19.038;2023-02-22T00:00:48;5.80;;;4.00;;
77518;SDS011;66629;47.346;19.038;2023-02-22T00:03:15;5.93;;;3.80;;
77518;SDS011;66629;47.346;19.038;2023-02-22T00:05:43;7.53;;;4.40;;
77518;SDS011;66629;47.346;19.038;2023-02-22T00:08:14;8.25;;;4.20;;
77518;SDS011;66629;47.346;19.038;2023-02-22T00:10:41;6.28;;;4.20;;
77518;SDS011;66629;47.346;19.038;2023-02-22T00:13:08;7.03;;;4.55;;
77518;SDS011;66629;47.346;19.038;2023-02-22T00:15:34;7.50;;;5.28;;
77518;SDS011;66629;47.346;19.038;2023-02-22T00:18:00;7.40;;;4.85;;
77518;SDS011;66629;47.346;19.038;2023-02-22T00:20:27;7.20;;;4.70;;
77518;SDS011;66629;47.346;19.038;2023-02-22T00:22:52;8.43;;;4.55;;
77518;SDS011;66629;47.346;19.038;2023-02-22T00:25:20;6.55;;;4.75;;
77518;SDS011;66629;47.346;19.038;2023-02-22T00:27:47;6.63;;;4.38;;
77518;SDS011;66629;47.346;19.038;2023-02-22T00:30:23;6.43;;;4.43;;
77518;SDS011;66629;47.346;19.038;2023-02-22T00:35:17;5.47;;;3.88;;
77518;SDS011;66629;47.346;19.038;2023-02-22T00:37:48;6.57;;;4.43;;
77518;SDS011;66629;47.346;19.038;2023-02-22T00:40:22;6.47;;;4.43;;
77518;SDS011;66629;47.346;19.038;2023-02-22T00:42:50;7.38;;;4.30;;
77518;SDS011;66629;47.346;19.038;2023-02-22T00:45:17;6.90;;;4.63;;
77518;SDS011;66629;47.346;19.038;2023-02-22T00:47:47;6.15;;;4.60;;
77518;SDS011;66629;47.346;19.038;2023-02-22T00:50:13;6.80;;;4.65;;
77518;SDS011;66629;47.346;19.038;2023-02-22T00:52:39;7.20;;;4.30;;
77518;SDS011;66629;47.346;19.038;2023-02-22T00:55:07;7.15;;;4.43;;
77518;SDS011;66629;47.346;19.038;2023-02-22T00:57:34;7.20;;;4.75;;
77518;SDS011;66629;47.346;19.038;2023-02-22T01:00:00;8.68;;;5.13;;
77518;SDS011;66629;47.346;19.038;2023-02-22T01:02:36;8.70;;;5.40;;
77518;SDS011;66629;47.346;19.038;2023-02-22T01:05:03;8.98;;;4.80;;
77518;SDS011;66629;47.346;19.038;2023-02-22T01:07:29;8.73;;;5.25;;
77518;SDS011;66629;47.346;19.038;2023-02-22T01:09:55;7.53;;;5.25;;
77518;SDS011;66629;47.346;19.038;2023-02-22T01:12:20;8.70;;;5.18;;
77518;SDS011;66629;47.346;19.038;2023-02-22T01:14:46;8.57;;;5.15;;
77518;SDS011;66629;47.346;19.038;2023-02-22T01:17:12;7.38;;;4.75;;
77518;SDS011;66629;47.346;19.038;2023-02-22T01:19:37;6.78;;;4.60;;
77518;SDS011;66629;47.346;19.038;2023-02-22T01:22:07;8.13;;;5.32;;
77518;SDS011;66629;47.346;19.038;2023-02-22T01:24:33;10.60;;;5.72;;
77518;SDS011;66629;47.346;19.038;2023-02-22T01:26:59;10.07;;;5.78;;
77518;SDS011;66629;47.346;19.038;2023-02-22T01:29:26;11.32;;;5.18;;
77518;SDS011;66629;47.346;19.038;2023-02-22T01:31:53;8.88;;;5.25;;
77518;SDS011;66629;47.346;19.038;2023-02-22T01:34:21;9.45;;;5.45;;
77518;SDS011;66629;47.346;19.038;2023-02-22T01:36:48;10.52;;;5.35;;
77518;SDS011;66629;47.346;19.038;2023-02-22T01:39:14;7.88;;;5.47;;
77518;SDS011;66629;47.346;19.038;2023-02-22T01:41:42;9.52;;;5.15;;
77518;SDS011;66629;47.346;19.038;2023-02-22T01:44:30;7.38;;;5.15;;
77518;SDS011;66629;47.346;19.038;2023-02-22T01:46:58;7.60;;;5.22;;
77518;SDS011;66629;47.346;19.038;2023-02-22T01:49:30;9.10;;;5.40;;
77518;SDS011;66629;47.346;19.038;2023-02-22T01:52:01;10.18;;;6.00;;
77518;SDS011;66629;47.346;19.038;2023-02-22T01:54:32;6.53;;;4.72;;
77518;SDS011;66629;47.346;19.038;2023-02-22T01:57:03;7.95;;;5.05;;
77518;SDS011;66629;47.346;19.038;2023-02-22T01:59:36;9.00;;;5.50;;
77518;SDS011;66629;47.346;19.038;2023-02-22T02:02:04;8.57;;;5.75;;
77518;SDS011;66629;47.346;19.038;2023-02-22T02:04:31;10.52;;;5.70;;
77518;SDS011;66629;47.346;19.038;2023-02-22T02:07:02;9.05;;;5.72;;
77518;SDS011;66629;47.346;19.038;2023-02-22T02:09:38;9.48;;;5.60;;
77518;SDS011;66629;47.346;19.038;2023-02-22T02:12:16;7.93;;;5.53;;
77518;SDS011;66629;47.346;19.038;2023-02-22T02:14:43;8.70;;;5.38;;
77518;SDS011;66629;47.346;19.038;2023-02-22T02:17:09;10.30;;;5.50;;
77518;SDS011;66629;47.346;19.038;2023-02-22T02:19:44;8.05;;;5.47;;
77518;SDS011;66629;47.346;19.038;2023-02-22T02:30:42;8.43;;;6.00;;
77518;SDS011;66629;47.346;19.038;2023-02-22T02:36:04;8.00;;;5.78;;
77518;SDS011;66629;47.346;19.038;2023-02-22T02:38:44;8.75;;;6.15;;
77518;SDS011;66629;47.346;19.038;2023-02-22T02:46:45;8.05;;;5.88;;
77518;SDS011;66629;47.346;19.038;2023-02-22T02:52:15;10.10;;;6.28;;
77518;SDS011;66629;47.346;19.038;2023-02-22T02:54:44;9.23;;;5.85;;
77518;SDS011;66629;47.346;19.038;2023-02-22T02:57:10;8.73;;;5.50;;
77518;SDS011;66629;47.346;19.038;2023-02-22T02:59:36;7.50;;;5.60;;
77518;SDS011;66629;47.346;19.038;2023-02-22T03:02:07;8.65;;;5.55;;
77518;SDS011;66629;47.346;19.038;2023-02-22T03:13:44;10.77;;;6.30;;
77518;SDS011;66629;47.346;19.038;2023-02-22T03:21:33;11.85;;;6.57;;
77518;SDS011;66629;47.346;19.038;2023-02-22T03:26:52;9.02;;;6.18;;
77518;SDS011;66629;47.346;19.038;2023-02-22T03:29:27;8.75;;;5.82;;
77518;SDS011;66629;47.346;19.038;2023-02-22T03:32:00;10.65;;;6.20;;
77518;SDS011;66629;47.346;19.038;2023-02-22T03:34:33;8.55;;;6.10;;
77518;SDS011;66629;47.346;19.038;2023-02-22T03:37:07;9.30;;;5.80;;
77518;SDS011;66629;47.346;19.038;2023-02-22T03:39:40;7.10;;;5.75;;
77518;SDS011;66629;47.346;19.038;2023-02-22T03:42:09;8.80;;;6.35;;
77518;SDS011;66629;47.346;19.038;2023-02-22T03:44:39;9.38;;;6.55;;
77518;SDS011;66629;47.346;19.038;2023-02-22T03:47:08;9.57;;;6.07;;
77518;SDS011;66629;47.346;19.038;2023-02-22T03:49:42;8.35;;;5.38;;
77518;SDS011;66629;47.346;19.038;2023-02-22T03:52:18;8.40;;;6.03;;
77518;SDS011;66629;47.346;19.038;2023-02-22T03:54:47;9.15;;;5.65;;
77518;SDS011;66629;47.346;19.038;2023-02-22T03:57:14;8.75;;;5.30;;
77518;SDS011;66629;47.346;19.038;2023-02-22T03:59:44;8.02;;;6.05;;
77518;SDS011;66629;47.346;19.038;2023-02-22T04:02:10;9.20;;;5.70;;
77518;SDS011;66629;47.346;19.038;2023-02-22T04:04:36;8.23;;;5.60;;
77518;SDS011;66629;47.346;19.038;2023-02-22T04:07:01;7.82;;;5.75;;
77518;SDS011;66629;47.346;19.038;2023-02-22T04:09:27;9.23;;;5.72;;
77518;SDS011;66629;47.346;19.038;2023-02-22T04:11:52;9.48;;;6.50;;
77518;SDS011;66629;47.346;19.038;2023-02-22T04:14:18;7.57;;;5.65;;
77518;SDS011;66629;47.346;19.038;2023-02-22T04:16:43;8.85;;;5.53;;
77518;SDS011;66629;47.346;19.038;2023-02-22T04:19:08;10.00;;;5.97;;
77518;SDS011;66629;47.346;19.038;2023-02-22T04:21:34;8.10;;;5.68;;
77518;SDS011;66629;47.346;19.038;2023-02-22T04:24:00;7.03;;;5.32;;
77518;SDS011;66629;47.346;19.038;2023-02-22T04:26:25;9.02;;;5.30;;
77518;SDS011;66629;47.346;19.038;2023-02-22T04:28:51;8.45;;;5.40;;
77518;SDS011;66629;47.346;19.038;2023-02-22T04:31:16;9.20;;;6.20;;
77518;SDS011;66629;47.346;19.038;2023-02-22T04:33:42;11.30;;;6.43;;
77518;SDS011;66629;47.346;19.038;2023-02-22T04:36:08;9.25;;;5.55;;
77518;SDS011;66629;47.346;19.038;2023-02-22T04:38:34;8.57;;;5.55;;
77518;SDS011;66629;47.346;19.038;2023-02-22T04:41:00;7.93;;;5.53;;
77518;SDS011;66629;47.346;19.038;2023-02-22T04:43:25;8.25;;;5.70;;
77518;SDS011;66629;47.346;19.038;2023-02-22T04:45:51;8.80;;;5.90;;
77518;SDS011;66629;47.346;19.038;2023-02-22T04:48:16;7.55;;;5.40;;
77518;SDS011;66629;47.346;19.038;2023-02-22T04:50:42;8.25;;;5.82;;
77518;SDS011;66629;47.346;19.038;2023-02-22T04:53:07;8.40;;;6.03;;
77518;SDS011;66629;47.346;19.038;2023-02-22T04:55:33;8.70;;;6.35;;
77518;SDS011;66629;47.346;19.038;2023-02-22T04:57:58;8.32;;;5.90;;
77518;SDS011;66629;47.346;19.038;2023-02-22T05:00:23;9.90;;;6.60;;
77518;SDS011;66629;47.346;19.038;2023-02-22T05:02:49;9.75;;;6.20;;
77518;SDS011;66629;47.346;19.038;2023-02-22T05:05:16;9.35;;;6.35;;
77518;SDS011;66629;47.346;19.038;2023-02-22T05:07:45;10.38;;;6.45;;
77518;SDS011;66629;47.346;19.038;2023-02-22T05:10:11;9.30;;;5.93;;
77518;SDS011;66629;47.346;19.038;2023-02-22T05:12:36;8.98;;;6.25;;
77518;SDS011;66629;47.346;19.038;2023-02-22T05:15:02;8.00;;;5.90;;
77518;SDS011;66629;47.346;19.038;2023-02-22T05:17:29;9.82;;;6.22;;
77518;SDS011;66629;47.346;19.038;2023-02-22T05:19:54;9.40;;;6.15;;
77518;SDS011;66629;47.346;19.038;2023-02-22T05:22:20;11.07;;;6.35;;
77518;SDS011;66629;47.346;19.038;2023-02-22T05:24:45;9.25;;;6.13;;
77518;SDS011;66629;47.346;19.038;2023-02-22T05:27:11;9.57;;;6.72;;
77518;SDS011;66629;47.346;19.038;2023-02-22T05:29:36;8.90;;;6.47;;
77518;SDS011;66629;47.346;19.038;2023-02-22T05:32:02;10.52;;;6.90;;
77518;SDS011;66629;47.346;19.038;2023-02-22T05:34:28;14.40;;;7.20;;
77518;SDS011;66629;47.346;19.038;2023-02-22T05:36:54;12.25;;;7.18;;
77518;SDS011;66629;47.346;19.038;2023-02-22T05:39:20;11.63;;;7.60;;
77518;SDS011;66629;47.346;19.038;2023-02-22T05:41:45;9.63;;;7.03;;
77518;SDS011;66629;47.346;19.038;2023-02-22T05:44:11;10.35;;;7.07;;
77518;SDS011;66629;47.346;19.038;2023-02-22T05:46:36;11.05;;;7.63;;
77518;SDS011;66629;47.346;19.038;2023-02-22T05:49:02;10.40;;;8.10;;
77518;SDS011;66629;47.346;19.038;2023-02-22T05:51:27;12.55;;;7.28;;
77518;SDS011;66629;47.346;19.038;2023-02-22T05:53:53;16.02;;;12.00;;
77518;SDS011;66629;47.346;19.038;2023-02-22T05:56:25;15.60;;;12.32;;
77518;SDS011;66629;47.346;19.038;2023-02-22T05:58:52;11.85;;;9.13;;
77518;SDS011;66629;47.346;19.038;2023-02-22T06:01:17;10.48;;;7.68;;
77518;SDS011;66629;47.346;19.038;2023-02-22T06:03:47;11.73;;;8.07;;
77518;SDS011;66629;47.346;19.038;2023-02-22T06:06:13;12.00;;;7.93;;
77518;SDS011;66629;47.346;19.038;2023-02-22T06:08:39;13.35;;;9.05;;
77518;SDS011;66629;47.346;19.038;2023-02-22T06:11:04;15.40;;;10.98;;
77518;SDS011;66629;47.346;19.038;2023-02-22T06:13:30;15.00;;;9.82;;
77518;SDS011;66629;47.346;19.038;2023-02-22T06:15:55;14.75;;;10.30;;
77518;SDS011;66629;47.346;19.038;2023-02-22T06:18:20;14.57;;;11.00;;
77518;SDS011;66629;47.346;19.038;2023-02-22T06:20:46;11.98;;;8.95;;
77518;SDS011;66629;47.346;19.038;2023-02-22T06:23:11;10.45;;;8.00;;
77518;SDS011;66629;47.346;19.038;2023-02-22T06:25:37;13.13;;;8.10;;
77518;SDS011;66629;47.346;19.038;2023-02-22T06:28:02;10.85;;;7.57;;
77518;SDS011;66629;47.346;19.038;2023-02-22T06:30:29;11.10;;;7.95;;
77518;SDS011;66629;47.346;19.038;2023-02-22T06:32:54;10.07;;;7.47;;
77518;SDS011;66629;47.346;19.038;2023-02-22T06:35:20;10.55;;;7.43;;
77518;SDS011;66629;47.346;19.038;2023-02-22T06:37:45;10.82;;;7.57;;
77518;SDS011;66629;47.346;19.038;2023-02-22T06:40:11;12.18;;;8.13;;
77518;SDS011;66629;47.346;19.038;2023-02-22T06:42:37;10.85;;;7.78;;
77518;SDS011;66629;47.346;19.038;2023-02-22T06:45:03;11.18;;;7.82;;
77518;SDS011;66629;47.346;19.038;2023-02-22T06:47:29;13.02;;;7.43;;
77518;SDS011;66629;47.346;19.038;2023-02-22T06:49:55;11.35;;;8.10;;
77518;SDS011;66629;47.346;19.038;2023-02-22T06:52:21;13.80;;;7.88;;
77518;SDS011;66629;47.346;19.038;2023-02-22T06:54:47;15.23;;;7.95;;
77518;SDS011;66629;47.346;19.038;2023-02-22T06:57:13;14.15;;;8.15;;
77518;SDS011;66629;47.346;19.038;2023-02-22T06:59:38;12.35;;;7.68;;
77518;SDS011;66629;47.346;19.038;2023-02-22T07:02:04;12.98;;;8.23;;
77518;SDS011;66629;47.346;19.038;2023-02-22T07:04:30;16.83;;;9.25;;
77518;SDS011;66629;47.346;19.038;2023-02-22T07:06:55;14.30;;;9.90;;
77518;SDS011;66629;47.346;19.038;2023-02-22T07:09:21;15.30;;;10.02;;
77518;SDS011;66629;47.346;19.038;2023-02-22T07:11:46;13.88;;;9.73;;
77518;SDS011;66629;47.346;19.038;2023-02-22T07:14:12;15.57;;;10.65;;
77518;SDS011;66629;47.346;19.038;2023-02-22T07:16:40;18.75;;;10.90;;
77518;SDS011;66629;47.346;19.038;2023-02-22T07:19:05;15.63;;;8.40;;
77518;SDS011;66629;47.346;19.038;2023-02-22T07:21:30;12.55;;;8.30;;
77518;SDS011;66629;47.346;19.038;2023-02-22T07:23:56;12.68;;;7.55;;
77518;SDS011;66629;47.346;19.038;2023-02-22T07:26:26;14.00;;;7.70;;
77518;SDS011;66629;47.346;19.038;2023-02-22T07:28:52;11.07;;;7.75;;
77518;SDS011;66629;47.346;19.038;2023-02-22T07:31:17;14.57;;;8.45;;
77518;SDS011;66629;47.346;19.038;2023-02-22T07:33:44;13.07;;;9.10;;
77518;SDS011;66629;47.346;19.038;2023-02-22T07:36:10;12.60;;;8.00;;
77518;SDS011;66629;47.346;19.038;2023-02-22T07:38:38;12.23;;;8.07;;
77518;SDS011;66629;47.346;19.038;2023-02-22T07:41:04;10.48;;;6.50;;
77518;SDS011;66629;47.346;19.038;2023-02-22T07:43:30;13.40;;;7.82;;
77518;SDS011;66629;47.346;19.038;2023-02-22T07:45:56;10.68;;;7.57;;
77518;SDS011;66629;47.346;19.038;2023-02-22T07:48:23;11.02;;;7.47;;
77518;SDS011;66629;47.346;19.038;2023-02-22T07:50:51;10.60;;;7.10;;
77518;SDS011;66629;47.346;19.038;2023-02-22T07:53:18;14.15;;;9.43;;
77518;SDS011;66629;47.346;19.038;2023-02-22T07:55:54;12.93;;;8.50;;
77518;SDS011;66629;47.346;19.038;2023-02-22T07:58:22;14.68;;;8.77;;
77518;SDS011;66629;47.346;19.038;2023-02-22T08:00:49;14.18;;;8.30;;
77518;SDS011;66629;47.346;19.038;2023-02-22T08:03:15;11.48;;;7.55;;
77518;SDS011;66629;47.346;19.038;2023-02-22T08:05:46;11.80;;;8.15;;
77518;SDS011;66629;47.346;19.038;2023-02-22T08:08:14;12.20;;;7.45;;
77518;SDS011;66629;47.346;19.038;2023-02-22T08:10:40;11.45;;;7.20;;
77518;SDS011;66629;47.346;19.038;2023-02-22T08:13:06;12.38;;;7.65;;
77518;SDS011;66629;47.346;19.038;2023-02-22T08:15:32;11.55;;;7.57;;
77518;SDS011;66629;47.346;19.038;2023-02-22T08:17:59;12.50;;;7.95;;
77518;SDS011;66629;47.346;19.038;2023-02-22T08:20:25;13.93;;;7.65;;
77518;SDS011;66629;47.346;19.038;2023-02-22T08:22:52;12.85;;;8.35;;
77518;SDS011;66629;47.346;19.038;2023-02-22T08:25:18;11.10;;;8.00;;
77518;SDS011;66629;47.346;19.038;2023-02-22T08:27:46;11.75;;;7.78;;
77518;SDS011;66629;47.346;19.038;2023-02-22T08:30:20;12.05;;;8.63;;
77518;SDS011;66629;47.346;19.038;2023-02-22T08:32:47;10.68;;;8.00;;
77518;SDS011;66629;47.346;19.038;2023-02-22T08:35:14;10.25;;;7.40;;
77518;SDS011;66629;47.346;19.038;2023-02-22T08:37:44;11.73;;;7.93;;
77518;SDS011;66629;47.346;19.038;2023-02-22T08:40:13;14.70;;;7.97;;
77518;SDS011;66629;47.346;19.038;2023-02-22T08:42:41;11.68;;;8.65;;
77518;SDS011;66629;47.346;19.038;2023-02-22T08:45:07;11.07;;;7.88;;
77518;SDS011;66629;47.346;19.038;2023-02-22T08:47:33;12.20;;;7.72;;
77518;SDS011;66629;47.346;19.038;2023-02-22T08:49:59;10.90;;;7.93;;
77518;SDS011;66629;47.346;19.038;2023-02-22T08:52:25;10.57;;;7.70;;
77518;SDS011;66629;47.346;19.038;2023-02-22T08:54:50;13.98;;;7.90;;
77518;SDS011;66629;47.346;19.038;2023-02-22T08:57:16;12.35;;;8.13;;
77518;SDS011;66629;47.346;19.038;2023-02-22T08:59:41;14.75;;;7.95;;
77518;SDS011;66629;47.346;19.038;2023-02-22T09:02:13;11.00;;;8.20;;
77518;SDS011;66629;47.346;19.038;2023-02-22T09:04:40;10.30;;;7.93;;
77518;SDS011;66629;47.346;19.038;2023-02-22T09:07:05;12.35;;;7.97;;
77518;SDS011;66629;47.346;19.038;2023-02-22T09:09:31;12.70;;;7.95;;
77518;SDS011;66629;47.346;19.038;2023-02-22T09:11:56;10.15;;;7.72;;
77518;SDS011;66629;47.346;19.038;2023-02-22T09:14:22;11.50;;;8.23;;
77518;SDS011;66629;47.346;19.038;2023-02-22T09:16:47;11.27;;;7.65;;
77518;SDS011;66629;47.346;19.038;2023-02-22T09:19:12;11.55;;;8.35;;
77518;SDS011;66629;47.346;19.038;2023-02-22T09:21:38;11.05;;;7.72;;
77518;SDS011;66629;47.346;19.038;2023-02-22T09:24:05;11.32;;;7.95;;
77518;SDS011;66629;47.346;19.038;2023-02-22T09:26:36;10.90;;;8.00;;
77518;SDS011;66629;47.346;19.038;2023-02-22T09:29:04;11.00;;;7.88;;
77518;SDS011;66629;47.346;19.038;2023-02-22T09:31:34;10.70;;;7.72;;
77518;SDS011;66629;47.346;19.038;2023-02-22T09:34:01;10.40;;;7.60;;
77518;SDS011;66629;47.346;19.038;2023-02-22T09:36:27;13.20;;;8.13;;
77518;SDS011;66629;47.346;19.038;2023-02-22T09:38:53;10.90;;;8.00;;
77518;SDS011;66629;47.346;19.038;2023-02-22T09:41:24;12.35;;;8.27;;
77518;SDS011;66629;47.346;19.038;2023-02-22T09:44:10;20.85;;;9.00;;
77518;SDS011;66629;47.346;19.038;2023-02-22T09:46:44;12.65;;;9.18;;
77518;SDS011;66629;47.346;19.038;2023-02-22T09:51:44;16.13;;;9.50;;
77518;SDS011;66629;47.346;19.038;2023-02-22T09:54:26;12.93;;;9.63;;
77518;SDS011;66629;47.346;19.038;2023-02-22T09:56:59;16.13;;;9.20;;
77518;SDS011;66629;47.346;19.038;2023-02-22T09:59:29;17.40;;;10.63;;
77518;SDS011;66629;47.346;19.038;2023-02-22T10:07:39;16.67;;;9.63;;
77518;SDS011;66629;47.346;19.038;2023-02-22T10:10:18;15.43;;;10.00;;
77518;SDS011;66629;47.346;19.038;2023-02-22T10:15:53;16.67;;;10.18;;
77518;SDS011;66629;47.346;19.038;2023-02-22T10:26:29;16.08;;;9.48;;
77518;SDS011;66629;47.346;19.038;2023-02-22T10:31:46;15.95;;;9.82;;
77518;SDS011;66629;47.346;19.038;2023-02-22T10:34:17;14.55;;;10.38;;
77518;SDS011;66629;47.346;19.038;2023-02-22T10:36:48;13.77;;;9.05;;
77518;SDS011;66629;47.346;19.038;2023-02-22T10:41:50;15.65;;;10.82;;
77518;SDS011;66629;47.346;19.038;2023-02-22T10:44:19;15.98;;;11.57;;
77518;SDS011;66629;47.346;19.038;2023-02-22T10:46:44;14.10;;;10.50;;
77518;SDS011;66629;47.346;19.038;2023-02-22T10:49:11;16.55;;;11.15;;
77518;SDS011;66629;47.346;19.038;2023-02-22T10:51:49;15.32;;;11.15;;
77518;SDS011;66629;47.346;19.038;2023-02-22T10:54:25;15.93;;;11.65;;
77518;SDS011;66629;47.346;19.038;2023-02-22T10:56:55;18.73;;;10.30;;
77518;SDS011;66629;47.346;19.038;2023-02-22T10:59:25;14.20;;;11.13;;
77518;SDS011;66629;47.346;19.038;2023-02-22T11:04:43;13.35;;;10.50;;
77518;SDS011;66629;47.346;19.038;2023-02-22T11:09:50;14.38;;;11.68;;
77518;SDS011;66629;47.346;19.038;2023-02-22T11:12:25;15.02;;;10.07;;
77518;SDS011;66629;47.346;19.038;2023-02-22T11:15:26;11.43;;;9.77;;
77518;SDS011;66629;47.346;19.038;2023-02-22T11:17:54;17.75;;;9.57;;
77518;SDS011;66629;47.346;19.038;2023-02-22T11:20:29;12.27;;;9.75;;
77518;SDS011;66629;47.346;19.038;2023-02-22T11:23:00;13.25;;;9.68;;
77518;SDS011;66629;47.346;19.038;2023-02-22T11:25:28;14.80;;;8.73;;
77518;SDS011;66629;47.346;19.038;2023-02-22T11:28:05;12.77;;;9.25;;
77518;SDS011;66629;47.346;19.038;2023-02-22T11:30:33;15.68;;;9.68;;
77518;SDS011;66629;47.346;19.038;2023-02-22T11:35:56;15.80;;;10.38;;
77518;SDS011;66629;47.346;19.038;2023-02-22T11:38:28;14.10;;;9.82;;
77518;SDS011;66629;47.346;19.038;2023-02-22T11:43:45;13.38;;;9.60;;
77518;SDS011;66629;47.346;19.038;2023-02-22T11:46:22;14.68;;;9.93;;
77518;SDS011;66629;47.346;19.038;2023-02-22T11:51:47;12.57;;;9.30;;
77518;SDS011;66629;47.346;19.038;2023-02-22T11:54:34;13.02;;;9.57;;
77518;SDS011;66629;47.346;19.038;2023-02-22T12:00:13;15.07;;;9.60;;
77518;SDS011;66629;47.346;19.038;2023-02-22T12:08:41;16.40;;;9.88;;
77518;SDS011;66629;47.346;19.038;2023-02-22T12:22:02;16.30;;;9.73;;
77518;SDS011;66629;47.346;19.038;2023-02-22T12:24:42;15.02;;;9.65;;
77518;SDS011;66629;47.346;19.038;2023-02-22T12:27:17;13.07;;;9.82;;
77518;SDS011;66629;47.346;19.038;2023-02-22T12:30:02;13.48;;;10.57;;
77518;SDS011;66629;47.346;19.038;2023-02-22T12:35:20;14.65;;;10.50;;
77518;SDS011;66629;47.346;19.038;2023-02-22T12:41:05;13.73;;;9.48;;
77518;SDS011;66629;47.346;19.038;2023-02-22T12:46:17;15.00;;;9.45;;
77518;SDS011;66629;47.346;19.038;2023-02-22T12:48:51;12.43;;;10.02;;
77518;SDS011;66629;47.346;19.038;2023-02-22T12:56:44;16.00;;;10.35;;
77518;SDS011;66629;47.346;19.038;2023-02-22T13:05:14;13.18;;;9.30;;
77518;SDS011;66629;47.346;19.038;2023-02-22T13:07:50;16.23;;;10.27;;
77518;SDS011;66629;47.346;19.038;2023-02-22T13:21:28;15.65;;;10.85;;
77518;SDS011;66629;47.346;19.038;2023-02-22T13:29:40;19.88;;;13.05;;
77518;SDS011;66629;47.346;19.038;2023-02-22T13:32:15;19.58;;;13.55;;
77518;SDS011;66629;47.346;19.038;2023-02-22T13:44:20;17.20;;;11.38;;
77518;SDS011;66629;47.346;19.038;2023-02-22T13:52:27;14.43;;;10.73;;
77518;SDS011;66629;47.346;19.038;2023-02-22T13:54:57;17.55;;;11.25;;
77518;SDS011;66629;47.346;19.038;2023-02-22T13:57:27;17.08;;;12.32;;
77518;SDS011;66629;47.346;19.038;2023-02-22T14:00:58;15.25;;;11.32;;
77518;SDS011;66629;47.346;19.038;2023-02-22T14:13:08;12.85;;;10.60;;
77518;SDS011;66629;47.346;19.038;2023-02-22T14:15:35;13.48;;;11.00;;
77518;SDS011;66629;47.346;19.038;2023-02-22T14:18:01;16.67;;;11.70;;
77518;SDS011;66629;47.346;19.038;2023-02-22T14:20:32;15.90;;;11.52;;
77518;SDS011;66629;47.346;19.038;2023-02-22T14:25:49;16.63;;;12.85;;
77518;SDS011;66629;47.346;19.038;2023-02-22T14:39:44;16.65;;;11.63;;
77518;SDS011;66629;47.346;19.038;2023-02-22T14:44:56;19.83;;;13.70;;
77518;SDS011;66629;47.346;19.038;2023-02-22T14:47:49;16.35;;;12.57;;
77518;SDS011;66629;47.346;19.038;2023-02-22T14:50:46;17.75;;;10.52;;
77518;SDS011;66629;47.346;19.038;2023-02-22T14:53:21;19.63;;;11.15;;
77518;SDS011;66629;47.346;19.038;2023-02-22T14:56:03;15.70;;;11.40;;
77518;SDS011;66629;47.346;19.038;2023-02-22T15:06:51;16.92;;;11.13;;
77518;SDS011;66629;47.346;19.038;2023-02-22T15:09:19;14.35;;;10.80;;
77518;SDS011;66629;47.346;19.038;2023-02-22T15:14:27;16.65;;;11.77;;
77518;SDS011;66629;47.346;19.038;2023-02-22T15:16:55;12.80;;;11.10;;
77518;SDS011;66629;47.346;19.038;2023-02-22T15:19:25;14.77;;;11.35;;
77518;SDS011;66629;47.346;19.038;2023-02-22T15:21:57;15.30;;;11.48;;
77518;SDS011;66629;47.346;19.038;2023-02-22T15:24:28;16.38;;;12.32;;
77518;SDS011;66629;47.346;19.038;2023-02-22T15:27:03;17.92;;;13.10;;
77518;SDS011;66629;47.346;19.038;2023-02-22T15:29:35;18.85;;;13.73;;
77518;SDS011;66629;47.346;19.038;2023-02-22T15:32:11;22.27;;;15.95;;
77518;SDS011;66629;47.346;19.038;2023-02-22T15:34:43;28.02;;;16.45;;
77518;SDS011;66629;47.346;19.038;2023-02-22T15:37:18;25.00;;;15.88;;
77518;SDS011;66629;47.346;19.038;2023-02-22T15:39:49;24.40;;;16.35;;
77518;SDS011;66629;47.346;19.038;2023-02-22T15:42:23;25.52;;;16.02;;
77518;SDS011;66629;47.346;19.038;2023-02-22T15:44:50;21.70;;;14.90;;
77518;SDS011;66629;47.346;19.038;2023-02-22T15:47:28;20.45;;;14.13;;
77518;SDS011;66629;47.346;19.038;2023-02-22T15:50:15;17.80;;;13.75;;
77518;SDS011;66629;47.346;19.038;2023-02-22T15:52:59;22.83;;;14.10;;
77518;SDS011;66629;47.346;19.038;2023-02-22T15:55:31;18.88;;;13.77;;
77518;SDS011;66629;47.346;19.038;2023-02-22T15:58:01;24.83;;;14.45;;
77518;SDS011;66629;47.346;19.038;2023-02-22T16:00:35;23.95;;;15.07;;
77518;SDS011;66629;47.346;19.038;2023-02-22T16:03:06;21.35;;;15.18;;
77518;SDS011;66629;47.346;19.038;2023-02-22T16:05:37;28.48;;;16.40;;
77518;SDS011;66629;47.346;19.038;2023-02-22T16:08:16;26.20;;;17.60;;
77518;SDS011;66629;47.346;19.038;2023-02-22T16:10:56;26.58;;;19.30;;
77518;SDS011;66629;47.346;19.038;2023-02-22T16:13:24;29.60;;;17.80;;
77518;SDS011;66629;47.346;19.038;2023-02-22T16:16:37;24.23;;;16.58;;
77518;SDS011;66629;47.346;19.038;2023-02-22T16:18:49;23.73;;;15.88;;
77518;SDS011;66629;47.346;19.038;2023-02-22T16:21:16;22.38;;;15.32;;
77518;SDS011;66629;47.346;19.038;2023-02-22T16:23:49;22.92;;;15.35;;
77518;SDS011;66629;47.346;19.038;2023-02-22T16:26:18;19.98;;;14.05;;
77518;SDS011;66629;47.346;19.038;2023-02-22T16:28:48;21.60;;;14.32;;
77518;SDS011;66629;47.346;19.038;2023-02-22T16:31:19;18.58;;;13.77;;
77518;SDS011;66629;47.346;19.038;2023-02-22T16:33:47;25.55;;;14.40;;
77518;SDS011;66629;47.346;19.038;2023-02-22T16:36:15;20.05;;;15.30;;
77518;SDS011;66629;47.346;19.038;2023-02-22T16:38:40;24.38;;;15.90;;
77518;SDS011;66629;47.346;19.038;2023-02-22T16:41:08;23.42;;;15.80;;
77518;SDS011;66629;47.346;19.038;2023-02-22T16:43:35;26.52;;;15.68;;
77518;SDS011;66629;47.346;19.038;2023-02-22T16:46:01;33.78;;;17.75;;
77518;SDS011;66629;47.346;19.038;2023-02-22T16:48:29;29.42;;;18.67;;
77518;SDS011;66629;47.346;19.038;2023-02-22T16:51:00;29.27;;;19.50;;
77518;SDS011;66629;47.346;19.038;2023-02-22T16:53:30;33.33;;;19.65;;
77518;SDS011;66629;47.346;19.038;2023-02-22T16:55:57;33.83;;;20.75;;
77518;SDS011;66629;47.346;19.038;2023-02-22T16:58:26;29.77;;;19.95;;
77518;SDS011;66629;47.346;19.038;2023-02-22T17:00:52;28.67;;;20.83;;
77518;SDS011;66629;47.346;19.038;2023-02-22T17:03:19;29.73;;;18.98;;
77518;SDS011;66629;47.346;19.038;2023-02-22T17:05:45;36.00;;;20.65;;
77518;SDS011;66629;47.346;19.038;2023-02-22T17:08:10;31.02;;;21.42;;
77518;SDS011;66629;47.346;19.038;2023-02-22T17:10:36;38.03;;;21.88;;
77518;SDS011;66629;47.346;19.038;2023-02-22T17:13:02;29.55;;;21.15;;
77518;SDS011;66629;47.346;19.038;2023-02-22T17:15:31;33.45;;;22.35;;
77518;SDS011;66629;47.346;19.038;2023-02-22T17:17:59;36.38;;;23.65;;
77518;SDS011;66629;47.346;19.038;2023-02-22T17:20:28;41.30;;;26.20;;
77518;SDS011;66629;47.346;19.038;2023-02-22T17:22:59;36.50;;;25.80;;
77518;SDS011;66629;47.346;19.038;2023-02-22T17:25:31;42.88;;;29.02;;
77518;SDS011;66629;47.346;19.038;2023-02-22T17:28:07;45.55;;;29.73;;
77518;SDS011;66629;47.346;19.038;2023-02-22T17:30:33;41.72;;;29.17;;
77518;SDS011;66629;47.346;19.038;2023-02-22T17:33:00;36.55;;;27.33;;
77518;SDS011;66629;47.346;19.038;2023-02-22T17:35:28;38.28;;;27.30;;
77518;SDS011;66629;47.346;19.038;2023-02-22T17:37:56;32.92;;;25.23;;
77518;SDS011;66629;47.346;19.038;2023-02-22T17:40:23;33.35;;;24.10;;